Time;durP1;ratioP1;P1;durP2;ratioP2;P2;SDS_P1;SDS_P2;PMS_P1;PMS_P2;Temp;Humidity;BMP_temperature;BMP_pressure;BME280_temperature;BME280_humidity;BME280_pressure;Samples;Min_cycle;Max_cycle;Signal;HPM_P1;HPM_P2
2022/07/28 00:01:43;;;;;;;4.38;4.07;;;18.20;99.90;;;;;;5073053;28;20205;-83
2022/07/28 00:04:12;;;;;;;5.18;4.68;;;18.20;99.90;;;;;;5073338;28;20207;-83
2022/07/28 00:06:41;;;;;;;5.10;4.60;;;18.20;99.90;;;;;;5073335;28;20221;-83
2022/07/28 00:09:09;;;;;;;4.13;3.72;;;18.20;99.90;;;;;;5072270;28;20304;-83
2022/07/28 00:11:38;;;;;;;4.38;3.88;;;18.20;99.90;;;;;;5072472;28;20205;-83
2022/07/28 00:14:23;;;;;;;4.57;4.18;;;18.10;99.90;;;;;;5073036;28;20224;-83
2022/07/28 00:16:52;;;;;;;8.32;4.00;;;18.10;99.90;;;;;;5072628;28;20233;-83
2022/07/28 00:19:20;;;;;;;4.57;4.25;;;18.10;99.90;;;;;;5073006;28;20205;-83
2022/07/28 00:21:49;;;;;;;5.25;4.75;;;18.00;99.90;;;;;;5072574;28;20205;-83
2022/07/28 00:24:17;;;;;;;4.28;3.97;;;18.00;99.90;;;;;;5073058;28;20227;-83
2022/07/28 00:26:46;;;;;;;7.95;4.00;;;18.00;99.90;;;;;;5072344;28;20244;-83
2022/07/28 00:29:14;;;;;;;4.53;4.13;;;18.00;99.90;;;;;;5072693;28;20216;-83
2022/07/28 00:31:44;;;;;;;3.97;3.67;;;17.90;99.90;;;;;;5073007;28;20228;-83
2022/07/28 00:34:12;;;;;;;5.15;4.70;;;17.90;99.90;;;;;;5072632;28;20205;-83
2022/07/28 00:36:41;;;;;;;4.78;4.38;;;17.80;99.90;;;;;;5072237;28;20232;-83
2022/07/28 00:39:10;;;;;;;4.38;3.97;;;17.70;99.90;;;;;;5072498;28;20260;-83
2022/07/28 00:41:39;;;;;;;4.13;3.78;;;17.80;99.90;;;;;;5072636;28;20232;-83
2022/07/28 00:44:09;;;;;;;4.60;4.20;;;17.80;99.90;;;;;;5072639;28;20207;-83
2022/07/28 00:46:38;;;;;;;4.45;4.15;;;17.70;99.90;;;;;;5072823;28;20235;-83
2022/07/28 00:49:08;;;;;;;4.55;4.15;;;17.70;99.90;;;;;;5072091;28;20298;-83
2022/07/28 00:51:37;;;;;;;4.28;3.97;;;17.70;99.90;;;;;;5072797;28;20227;-83
2022/07/28 00:54:05;;;;;;;4.47;4.18;;;17.70;99.90;;;;;;5072371;28;20224;-83
2022/07/28 00:56:35;;;;;;;4.20;3.83;;;17.60;99.90;;;;;;5072315;28;20379;-83
2022/07/28 00:59:03;;;;;;;4.57;4.18;;;17.60;99.90;;;;;;5072264;28;20292;-83
2022/07/28 01:01:32;;;;;;;5.28;4.68;;;17.60;99.90;;;;;;5072127;28;20296;-83
2022/07/28 01:04:02;;;;;;;3.42;3.22;;;17.50;99.90;;;;;;5072445;28;20215;-83
2022/07/28 01:06:43;;;;;;;3.67;3.47;;;17.60;99.90;;;;;;5072351;28;20304;-83
2022/07/28 01:09:22;;;;;;;3.88;3.58;;;17.50;99.90;;;;;;5072230;28;20288;-83
2022/07/28 01:12:01;;;;;;;5.00;4.60;;;17.50;99.90;;;;;;5072527;28;20205;-83
2022/07/28 01:14:37;;;;;;;4.88;4.38;;;17.50;99.90;;;;;;5072389;28;20247;-83
2022/07/28 01:17:11;;;;;;;4.18;3.85;;;17.50;99.90;;;;;;5071862;28;20232;-83
2022/07/28 01:19:46;;;;;;;4.22;3.85;;;17.50;99.90;;;;;;5071628;28;20223;-83
2022/07/28 01:22:21;;;;;;;3.90;3.60;;;17.50;99.90;;;;;;5076126;28;20278;-83
2022/07/28 01:25:00;;;;;;;3.70;3.45;;;17.40;99.90;;;;;;5076022;28;20203;-83
2022/07/28 01:27:44;;;;;;;3.92;3.63;;;17.40;99.90;;;;;;5076090;28;20244;-83
2022/07/28 01:30:32;;;;;;;5.13;4.38;;;17.40;99.90;;;;;;5075862;28;20213;-83
2022/07/28 01:33:04;;;;;;;4.13;3.70;;;17.40;99.90;;;;;;5075786;28;20209;-83
2022/07/28 01:35:41;;;;;;;4.15;3.78;;;17.50;99.90;;;;;;5075635;28;20209;-83
2022/07/28 01:38:12;;;;;;;4.13;3.83;;;17.40;99.90;;;;;;5076008;28;20273;-83
2022/07/28 01:40:44;;;;;;;4.25;3.95;;;17.40;99.90;;;;;;5075688;28;20212;-83
2022/07/28 01:43:22;;;;;;;6.45;4.55;;;17.40;99.90;;;;;;5075689;28;20214;-83
2022/07/28 01:45:54;;;;;;;4.25;3.85;;;17.40;99.90;;;;;;5075327;28;20321;-83
2022/07/28 01:48:24;;;;;;;5.00;4.35;;;17.40;99.90;;;;;;5075241;28;20221;-83
2022/07/28 01:50:55;;;;;;;3.88;3.58;;;17.40;99.90;;;;;;5075489;28;20292;-83
2022/07/28 01:53:26;;;;;;;3.67;3.38;;;17.30;99.90;;;;;;5075470;28;20205;-83
2022/07/28 01:55:56;;;;;;;4.13;3.83;;;17.40;99.90;;;;;;5074903;28;20257;-83
2022/07/28 01:58:27;;;;;;;4.93;4.47;;;17.30;99.90;;;;;;5075278;28;20196;-83
2022/07/28 02:00:59;;;;;;;4.00;3.65;;;17.30;99.90;;;;;;5075209;28;20232;-83
2022/07/28 02:03:30;;;;;;;3.75;3.47;;;17.30;99.90;;;;;;5075185;28;20304;-83
2022/07/28 02:06:02;;;;;;;10.65;4.45;;;17.30;99.90;;;;;;5074922;28;20251;-83
2022/07/28 02:08:32;;;;;;;4.85;4.15;;;17.30;99.90;;;;;;5075092;28;20235;-83
2022/07/28 02:13:49;;;;;;;4.22;3.92;;;17.40;99.90;;;;;;5074953;28;20272;-83
2022/07/28 02:16:22;;;;;;;6.70;4.00;;;17.40;99.90;;;;;;5074741;28;20225;-83
2022/07/28 02:18:53;;;;;;;4.20;3.80;;;17.50;99.90;;;;;;5074710;28;20236;-82
2022/07/28 02:21:24;;;;;;;4.18;3.58;;;17.50;99.90;;;;;;5075012;28;20208;-83
2022/07/28 02:23:54;;;;;;;8.18;4.20;;;17.50;99.90;;;;;;5074563;28;20295;-83
2022/07/28 02:26:27;;;;;;;4.82;4.13;;;17.60;99.90;;;;;;5074670;28;20404;-82
2022/07/28 02:28:58;;;;;;;3.90;3.50;;;17.60;99.90;;;;;;5074639;28;20240;-82
2022/07/28 02:31:31;;;;;;;4.03;3.72;;;17.60;99.90;;;;;;5074662;28;20231;-83
2022/07/28 02:34:03;;;;;;;3.95;3.65;;;17.60;99.90;;;;;;5074955;28;20284;-82
2022/07/28 02:36:38;;;;;;;3.55;3.33;;;17.60;99.90;;;;;;5074650;28;20242;-83
2022/07/28 02:39:14;;;;;;;3.83;3.53;;;17.60;99.90;;;;;;5074255;28;20212;-83
2022/07/28 02:41:44;;;;;;;3.50;3.20;;;17.60;99.90;;;;;;5074466;28;20200;-83
2022/07/28 02:44:15;;;;;;;3.45;2.90;;;17.60;99.90;;;;;;5074495;28;20233;-83
2022/07/28 02:46:51;;;;;;;4.30;3.90;;;17.60;99.90;;;;;;5096325;22;20233;-88
2022/07/28 02:49:23;;;;;;;3.20;2.90;;;17.70;99.90;;;;;;5073912;28;20238;-88
2022/07/28 02:51:54;;;;;;;3.10;2.88;;;17.70;99.90;;;;;;5074479;28;20197;-88
2022/07/28 02:54:24;;;;;;;3.65;3.35;;;17.70;99.90;;;;;;5073934;28;20258;-88
2022/07/28 02:56:54;;;;;;;3.05;2.85;;;17.60;99.90;;;;;;5073722;28;20293;-88
2022/07/28 02:59:24;;;;;;;2.83;2.63;;;17.60;99.90;;;;;;5074073;28;20236;-88
2022/07/28 03:01:54;;;;;;;4.72;3.63;;;17.60;99.90;;;;;;5074394;28;20268;-87
2022/07/28 03:07:07;;;;;;;4.68;3.67;;;17.60;99.90;;;;;;5073028;28;20231;-82
2022/07/28 03:09:40;;;;;;;6.13;3.92;;;17.50;99.90;;;;;;5073647;28;20229;-82
2022/07/28 03:12:08;;;;;;;3.80;3.35;;;17.50;99.90;;;;;;5073923;28;20215;-82
2022/07/28 03:14:37;;;;;;;2.88;2.67;;;17.50;99.90;;;;;;5074345;28;20292;-82
2022/07/28 03:17:07;;;;;;;3.40;3.17;;;17.50;99.90;;;;;;5073558;28;20253;-82
2022/07/28 03:19:36;;;;;;;3.38;3.03;;;17.50;99.90;;;;;;5073422;28;20206;-82
2022/07/28 03:22:05;;;;;;;4.05;2.97;;;17.50;99.90;;;;;;5073567;28;20207;-82
2022/07/28 03:24:40;;;;;;;3.60;3.30;;;17.50;99.90;;;;;;5073298;28;20244;-82
2022/07/28 03:27:15;;;;;;;6.53;3.35;;;17.50;99.90;;;;;;5073563;28;20222;-82
2022/07/28 03:29:46;;;;;;;4.93;3.60;;;17.50;99.90;;;;;;5073406;28;20296;-82
2022/07/28 03:32:19;;;;;;;3.97;3.58;;;17.50;99.90;;;;;;5073646;28;20288;-82
2022/07/28 03:34:48;;;;;;;6.30;3.58;;;17.50;99.90;;;;;;5073069;28;20264;-82
2022/07/28 03:37:23;;;;;;;4.30;3.45;;;17.50;99.90;;;;;;5073068;28;20306;-83
2022/07/28 03:39:54;;;;;;;3.97;3.20;;;17.50;99.90;;;;;;5073512;28;20232;-83
2022/07/28 03:42:24;;;;;;;3.45;3.15;;;17.50;99.90;;;;;;5073501;28;20235;-83
2022/07/28 03:44:52;;;;;;;3.65;3.33;;;17.50;99.90;;;;;;5072986;28;20296;-83
2022/07/28 03:47:24;;;;;;;3.05;2.83;;;17.50;99.90;;;;;;5073008;28;20229;-83
2022/07/28 03:49:52;;;;;;;3.53;3.22;;;17.50;99.90;;;;;;5073374;28;20288;-82
2022/07/28 03:52:20;;;;;;;4.15;3.60;;;17.40;99.90;;;;;;5073528;28;20216;-83
2022/07/28 03:54:52;;;;;;;4.43;3.63;;;17.40;99.90;;;;;;5073151;28;20209;-83
2022/07/28 03:57:21;;;;;;;4.60;3.42;;;17.30;99.90;;;;;;5072893;28;20307;-83
2022/07/28 03:59:49;;;;;;;3.42;3.08;;;17.30;99.90;;;;;;5072728;28;20240;-83
2022/07/28 04:02:17;;;;;;;3.58;2.88;;;17.30;99.90;;;;;;5072944;28;20268;-83
2022/07/28 04:04:47;;;;;;;3.55;2.65;;;17.20;99.90;;;;;;5073331;28;20211;-83
2022/07/28 04:07:15;;;;;;;3.58;3.28;;;17.30;99.90;;;;;;5072901;28;20225;-83
2022/07/28 04:09:44;;;;;;;3.53;3.22;;;17.20;99.90;;;;;;5072959;28;20292;-83
2022/07/28 04:12:12;;;;;;;3.55;3.05;;;17.30;99.90;;;;;;5073074;28;20292;-83
2022/07/28 04:14:40;;;;;;;3.95;3.22;;;17.30;99.90;;;;;;5072866;28;20252;-83
2022/07/28 04:17:09;;;;;;;3.80;3.22;;;17.30;99.90;;;;;;5072615;28;20252;-83
2022/07/28 04:19:37;;;;;;;3.67;3.00;;;17.30;99.90;;;;;;5072348;28;20201;-83
2022/07/28 04:22:07;;;;;;;4.32;3.55;;;17.30;99.90;;;;;;5073077;28;20209;-83
2022/07/28 04:24:36;;;;;;;7.88;3.30;;;17.30;99.90;;;;;;5072667;28;20250;-83
2022/07/28 04:27:04;;;;;;;3.45;3.17;;;17.30;99.90;;;;;;5072444;28;20320;-83
2022/07/28 04:29:32;;;;;;;3.85;3.45;;;17.30;99.90;;;;;;5072464;28;20213;-83
2022/07/28 04:32:00;;;;;;;3.40;3.10;;;17.30;99.90;;;;;;5072334;28;20220;-83
2022/07/28 04:34:29;;;;;;;5.13;3.40;;;17.40;99.90;;;;;;5076322;28;20216;-83
2022/07/28 04:36:58;;;;;;;3.75;2.97;;;17.30;99.90;;;;;;5092767;28;20229;-83
2022/07/28 04:39:27;;;;;;;3.20;2.90;;;17.30;99.90;;;;;;5092337;28;20311;-83
2022/07/28 04:41:56;;;;;;;4.93;3.70;;;17.30;99.90;;;;;;5092567;28;20228;-83
2022/07/28 04:44:24;;;;;;;3.58;3.28;;;17.30;99.90;;;;;;5092963;28;20319;-83
2022/07/28 04:46:52;;;;;;;8.50;3.63;;;17.30;99.90;;;;;;5092219;28;20315;-83
2022/07/28 04:49:20;;;;;;;3.40;3.10;;;17.30;99.90;;;;;;5092865;28;20200;-83
2022/07/28 04:51:51;;;;;;;13.73;3.28;;;17.30;99.90;;;;;;5092726;28;20211;-83
2022/07/28 04:54:25;;;;;;;3.80;3.25;;;17.30;99.90;;;;;;5092455;28;20212;-83
2022/07/28 04:56:55;;;;;;;3.47;3.17;;;17.30;99.90;;;;;;5096142;28;20223;-83
2022/07/28 04:59:23;;;;;;;3.60;3.15;;;17.30;99.90;;;;;;5096280;28;20302;-83
2022/07/28 05:01:52;;;;;;;3.55;3.17;;;17.40;99.90;;;;;;5096595;28;20230;-83
2022/07/28 05:04:21;;;;;;;6.00;4.13;;;17.40;99.90;;;;;;5096493;28;20230;-85
2022/07/28 05:06:49;;;;;;;4.47;3.85;;;17.40;99.90;;;;;;5096658;28;20239;-85
2022/07/28 05:09:17;;;;;;;4.28;3.67;;;17.40;99.90;;;;;;5096210;28;20223;-85
2022/07/28 05:11:46;;;;;;;3.78;3.45;;;17.40;99.90;;;;;;5096350;28;20200;-84
2022/07/28 05:14:17;;;;;;;4.15;3.60;;;17.50;99.90;;;;;;5096445;28;20234;-85
2022/07/28 05:16:45;;;;;;;4.00;3.67;;;17.60;99.90;;;;;;5096557;28;20251;-85
2022/07/28 05:19:14;;;;;;;7.13;5.47;;;17.60;99.90;;;;;;5095807;28;20255;-85
2022/07/28 05:21:42;;;;;;;4.38;3.97;;;17.70;99.90;;;;;;5091751;28;20220;-85
2022/07/28 05:24:12;;;;;;;6.57;4.78;;;17.80;99.90;;;;;;5083776;28;20216;-85
2022/07/28 05:26:41;;;;;;;4.55;4.15;;;17.80;99.90;;;;;;5096000;28;20230;-85
2022/07/28 05:29:09;;;;;;;8.63;4.78;;;17.90;99.90;;;;;;5080259;28;20228;-85
2022/07/28 05:31:39;;;;;;;3.35;3.05;;;18.00;99.90;;;;;;5076207;28;20262;-85
2022/07/28 05:34:07;;;;;;;4.18;3.08;;;18.10;99.90;;;;;;5075948;28;20327;-85
2022/07/28 05:36:36;;;;;;;3.80;3.17;;;18.10;99.90;;;;;;5075452;28;20313;-84
2022/07/28 05:39:04;;;;;;;3.75;3.22;;;18.10;99.90;;;;;;5075353;28;20225;-85
2022/07/28 05:41:32;;;;;;;3.65;3.08;;;18.20;99.90;;;;;;5081500;28;20296;-85
2022/07/28 05:44:01;;;;;;;3.08;2.83;;;18.40;99.90;;;;;;5075363;28;20190;-85
2022/07/28 05:46:29;;;;;;;2.88;2.67;;;18.50;99.90;;;;;;5075197;28;20225;-85
2022/07/28 05:48:59;;;;;;;3.97;3.30;;;18.50;99.90;;;;;;5075107;28;20189;-85
2022/07/28 05:51:27;;;;;;;4.63;3.13;;;18.60;99.90;;;;;;5074841;28;20201;-85
2022/07/28 05:53:56;;;;;;;3.10;2.90;;;18.60;99.90;;;;;;5075239;28;20296;-90
2022/07/28 05:56:24;;;;;;;2.72;2.53;;;18.60;99.90;;;;;;5075358;28;20315;-91
2022/07/28 05:58:52;;;;;;;3.35;2.85;;;18.60;99.90;;;;;;5083058;28;20208;-91
2022/07/28 06:01:21;;;;;;;3.35;3.05;;;18.70;99.90;;;;;;5095374;28;20234;-91
2022/07/28 06:03:51;;;;;;;4.32;3.90;;;18.70;99.90;;;;;;5079740;28;20200;-91
2022/07/28 06:06:38;;;;;;;6.15;3.42;;;18.80;99.90;;;;;;5073949;28;20308;-92
2022/07/28 06:09:07;;;;;;;7.03;6.38;;;18.90;99.90;;;;;;5074689;28;20209;-94
2022/07/28 06:11:35;;;;;;;3.25;2.97;;;19.00;99.90;;;;;;5074974;28;20197;-93
2022/07/28 06:14:03;;;;;;;3.38;2.97;;;19.00;99.90;;;;;;5074009;28;20235;-90
2022/07/28 06:16:36;;;;;;;3.55;3.25;;;19.00;99.90;;;;;;5074520;28;20213;-90
2022/07/28 06:19:06;;;;;;;4.15;3.75;;;19.00;99.90;;;;;;5073681;28;20221;-92
2022/07/28 06:21:35;;;;;;;3.65;3.35;;;19.10;99.90;;;;;;5074775;28;20201;-91
2022/07/28 06:24:05;;;;;;;3.88;3.20;;;19.10;99.90;;;;;;5072994;28;20197;-91
2022/07/28 06:26:36;;;;;;;3.97;3.25;;;19.20;99.90;;;;;;5074584;28;20240;-91
2022/07/28 06:29:11;;;;;;;3.58;2.90;;;19.20;99.90;;;;;;5074553;28;20204;-91
2022/07/28 06:31:39;;;;;;;4.28;3.13;;;19.30;99.90;;;;;;5074737;28;20244;-91
2022/07/28 06:34:08;;;;;;;3.42;3.20;;;19.40;99.90;;;;;;5074822;28;20204;-91
2022/07/28 06:36:36;;;;;;;3.60;3.30;;;19.50;99.90;;;;;;5074339;28;20309;-91
2022/07/28 06:39:06;;;;;;;2.55;2.33;;;19.50;99.90;;;;;;5074341;28;20244;-91
2022/07/28 06:41:34;;;;;;;4.00;3.13;;;19.60;99.90;;;;;;5074582;28;20277;-91
2022/07/28 06:44:03;;;;;;;5.75;3.55;;;19.60;99.90;;;;;;5074586;28;20205;-91
2022/07/28 06:46:36;;;;;;;3.30;3.03;;;19.70;99.90;;;;;;5074081;28;20282;-91
2022/07/28 06:49:05;;;;;;;4.25;3.83;;;19.90;99.90;;;;;;5074103;28;20205;-91
2022/07/28 06:51:33;;;;;;;4.97;4.47;;;20.00;99.90;;;;;;5074391;28;20205;-91
2022/07/28 06:54:07;;;;;;;4.57;4.18;;;20.20;99.90;;;;;;5074278;28;20204;-91
2022/07/28 06:56:38;;;;;;;5.60;3.85;;;20.40;99.90;;;;;;5073904;28;20304;-91
2022/07/28 06:59:06;;;;;;;4.28;3.88;;;20.50;99.90;;;;;;5073737;28;20423;-91
2022/07/28 07:01:35;;;;;;;4.60;3.58;;;20.70;99.90;;;;;;5074184;28;20240;-91
2022/07/28 07:04:03;;;;;;;3.90;3.17;;;20.80;99.90;;;;;;5074183;28;20233;-91
2022/07/28 07:06:31;;;;;;;5.90;3.88;;;20.90;99.90;;;;;;5074028;28;20256;-91
2022/07/28 07:09:00;;;;;;;6.72;3.38;;;21.00;99.90;;;;;;5073787;28;20205;-92
2022/07/28 07:11:30;;;;;;;4.78;3.30;;;21.10;99.90;;;;;;5073973;28;20205;-91
2022/07/28 07:13:58;;;;;;;3.85;3.45;;;21.30;99.90;;;;;;5074041;28;20221;-92
2022/07/28 07:16:29;;;;;;;5.15;3.63;;;21.50;99.90;;;;;;5073899;28;20231;-92
2022/07/28 07:18:58;;;;;;;4.65;3.80;;;21.70;99.90;;;;;;5072798;28;20220;-91
2022/07/28 07:21:34;;;;;;;4.25;3.85;;;21.90;99.90;;;;;;5073729;28;20209;-92
2022/07/28 07:24:02;;;;;;;3.58;3.10;;;22.00;99.90;;;;;;5073662;28;20283;-91
2022/07/28 07:26:32;;;;;;;4.03;2.90;;;22.10;99.90;;;;;;5073661;28;20319;-91
2022/07/28 07:29:00;;;;;;;3.33;3.13;;;22.30;99.90;;;;;;5073514;28;20236;-92
2022/07/28 07:31:29;;;;;;;3.35;3.05;;;22.40;99.90;;;;;;5073629;28;20213;-91
2022/07/28 07:33:57;;;;;;;4.55;4.15;;;22.50;99.90;;;;;;5073681;28;20288;-92
2022/07/28 07:36:25;;;;;;;3.90;3.20;;;22.70;99.90;;;;;;5072870;28;20221;-92
2022/07/28 07:38:54;;;;;;;4.80;4.38;;;22.90;99.90;;;;;;5073249;28;20292;-91
2022/07/28 07:41:22;;;;;;;5.15;3.80;;;23.20;99.90;;;;;;5073306;28;20228;-91
2022/07/28 07:43:52;;;;;;;6.85;3.95;;;23.40;99.90;;;;;;5073179;28;20205;-92
2022/07/28 07:46:20;;;;;;;3.83;3.45;;;23.60;99.90;;;;;;5072973;28;20303;-91
2022/07/28 07:48:49;;;;;;;3.45;3.15;;;23.90;99.90;;;;;;5073164;28;20205;-91
2022/07/28 07:51:17;;;;;;;4.30;3.42;;;24.30;99.90;;;;;;5072955;28;20227;-91
2022/07/28 07:53:45;;;;;;;3.70;3.25;;;24.40;99.90;;;;;;5073072;28;20288;-91
2022/07/28 07:56:17;;;;;;;4.22;2.35;;;24.40;99.90;;;;;;5072917;28;20275;-92
2022/07/28 07:58:45;;;;;;;3.40;3.10;;;24.50;99.90;;;;;;5072931;28;20201;-92
2022/07/28 08:01:15;;;;;;;2.90;2.70;;;24.90;99.90;;;;;;5073105;28;20220;-92
2022/07/28 08:03:45;;;;;;;4.00;3.58;;;25.40;99.90;;;;;;5073248;28;20250;-92
2022/07/28 08:06:17;;;;;;;4.82;3.97;;;25.90;99.90;;;;;;5072869;28;20229;-92
2022/07/28 08:08:53;;;;;;;3.78;2.63;;;26.40;99.90;;;;;;5073035;28;20200;-92
2022/07/28 08:11:22;;;;;;;5.10;3.78;;;27.40;99.90;;;;;;5072662;28;20225;-91
2022/07/28 08:13:50;;;;;;;4.50;2.95;;;27.70;99.90;;;;;;5073003;28;20236;-92
2022/07/28 08:16:20;;;;;;;3.45;3.13;;;28.10;99.90;;;;;;5072557;28;20307;-92
2022/07/28 08:18:48;;;;;;;2.47;2.38;;;28.40;99.90;;;;;;5072694;28;20264;-92
2022/07/28 08:21:16;;;;;;;4.50;3.00;;;28.80;99.90;;;;;;5072717;28;20231;-92
2022/07/28 08:23:45;;;;;;;3.22;2.92;;;29.20;99.90;;;;;;5072761;28;20223;-92
2022/07/28 08:26:13;;;;;;;3.90;3.30;;;29.40;99.90;;;;;;5072832;28;20288;-91
2022/07/28 08:28:41;;;;;;;3.60;3.30;;;29.10;99.90;;;;;;5072589;28;20266;-91
2022/07/28 08:31:10;;;;;;;4.13;3.00;;;28.40;99.90;;;;;;5072473;28;20244;-91
2022/07/28 08:33:40;;;;;;;3.38;2.78;;;28.00;99.90;;;;;;5072647;28;20205;-91
2022/07/28 08:36:27;;;;;;;4.13;3.22;;;27.70;99.90;;;;;;5071977;28;20228;-92
2022/07/28 08:38:55;;;;;;;3.88;3.58;;;27.50;99.90;;;;;;5072586;28;20208;-91
2022/07/28 08:41:30;;;;;;;3.92;3.63;;;27.40;99.90;;;;;;5072608;28;20227;-92
2022/07/28 08:44:03;;;;;;;2.42;2.22;;;27.40;99.90;;;;;;5072611;28;20296;-91
2022/07/28 08:46:35;;;;;;;3.22;2.83;;;27.50;99.90;;;;;;5099728;22;20342;-94
2022/07/28 08:49:09;;;;;;;3.38;3.08;;;27.70;99.90;;;;;;5092415;28;20208;-93
2022/07/28 08:51:42;;;;;;;5.70;3.28;;;28.10;99.90;;;;;;5092474;28;20251;-94
2022/07/28 08:54:15;;;;;;;3.83;3.45;;;28.60;99.90;;;;;;5092819;28;20203;-93
2022/07/28 08:56:45;;;;;;;3.53;3.22;;;29.30;99.90;;;;;;5092728;28;20227;-94
2022/07/28 08:59:15;;;;;;;3.58;3.28;;;30.10;99.90;;;;;;5113338;28;20223;-93
2022/07/28 09:01:44;;;;;;;3.38;2.95;;;30.60;99.90;;;;;;5106943;28;20212;-94
2022/07/28 09:04:15;;;;;;;3.30;3.00;;;29.90;99.70;;;;;;5092703;28;20207;-94
2022/07/28 09:06:44;;;;;;;3.92;2.72;;;30.60;99.80;;;;;;5092645;28;20231;-94
2022/07/28 09:09:12;;;;;;;8.65;3.33;;;31.10;98.40;;;;;;5092429;28;20210;-94
2022/07/28 09:11:41;;;;;;;3.65;3.00;;;31.50;98.90;;;;;;5092425;28;20220;-94
2022/07/28 09:14:09;;;;;;;3.28;2.85;;;31.80;98.30;;;;;;5092768;28;20278;-94
2022/07/28 09:16:38;;;;;;;2.90;2.70;;;31.90;97.50;;;;;;5092567;28;20224;-94
2022/07/28 09:19:06;;;;;;;2.70;2.50;;;32.30;97.70;;;;;;5092555;28;20204;-94
2022/07/28 09:21:36;;;;;;;5.57;3.03;;;32.50;96.60;;;;;;5092576;28;20231;-94
2022/07/28 09:24:05;;;;;;;6.30;2.83;;;32.50;95.70;;;;;;5092707;28;20200;-94
2022/07/28 09:26:33;;;;;;;3.42;3.22;;;32.30;95.50;;;;;;5092562;28;20248;-94
2022/07/28 09:29:03;;;;;;;8.30;6.22;;;32.70;94.20;;;;;;5092583;28;20204;-94
2022/07/28 09:31:31;;;;;;;4.53;4.13;;;33.00;95.10;;;;;;5092085;28;20293;-94
2022/07/28 09:34:02;;;;;;;10.77;4.00;;;33.50;92.60;;;;;;5092246;28;20215;-94
2022/07/28 09:36:37;;;;;;;4.38;3.53;;;33.80;92.20;;;;;;5092407;28;20289;-94
2022/07/28 09:39:07;;;;;;;4.00;3.70;;;33.70;88.90;;;;;;5092187;28;20207;-94
2022/07/28 09:41:57;;;;;;;3.45;3.17;;;33.90;90.70;;;;;;5093944;28;20231;-95
2022/07/28 09:44:26;;;;;;;4.18;3.22;;;34.10;91.50;;;;;;5090089;28;20231;-94
2022/07/28 09:46:54;;;;;;;3.45;3.03;;;34.20;88.00;;;;;;5095801;28;20231;-94
2022/07/28 09:49:40;;;;;;;2.90;2.70;;;34.40;86.60;;;;;;5095481;28;20208;-95
2022/07/28 09:52:10;;;;;;;3.80;3.08;;;33.90;84.20;;;;;;5095351;28;20220;-95
2022/07/28 09:54:39;;;;;;;3.50;3.20;;;33.80;90.10;;;;;;5095570;28;20199;-95
2022/07/28 09:57:11;;;;;;;4.82;3.30;;;33.70;90.50;;;;;;5095911;28;20219;-94
2022/07/28 09:59:43;;;;;;;3.85;3.47;;;34.00;91.20;;;;;;5095513;28;20234;-94
2022/07/28 10:02:24;;;;;;;3.15;2.85;;;34.20;84.10;;;;;;5095540;28;20200;-94
2022/07/28 10:04:54;;;;;;;3.92;3.53;;;34.30;83.40;;;;;;5095370;28;20203;-86
2022/07/28 10:07:22;;;;;;;6.63;3.20;;;34.40;84.20;;;;;;5095400;28;20250;-86
2022/07/28 10:10:00;;;;;;;2.47;2.38;;;33.80;85.50;;;;;;5095371;28;20253;-86
2022/07/28 10:12:30;;;;;;;5.18;3.47;;;33.10;88.60;;;;;;5095438;28;20227;-86
2022/07/28 10:14:59;;;;;;;8.13;3.05;;;32.30;85.90;;;;;;5095221;28;20196;-86
2022/07/28 10:17:30;;;;;;;3.10;2.80;;;32.20;90.10;;;;;;5095375;28;20240;-86
2022/07/28 10:20:04;;;;;;;3.10;2.80;;;32.50;87.30;;;;;;5095104;28;20228;-86
2022/07/28 10:22:36;;;;;;;4.22;3.67;;;32.90;89.60;;;;;;5095337;28;20293;-86
2022/07/28 10:25:12;;;;;;;3.20;3.00;;;33.30;90.10;;;;;;5095361;28;20208;-87
2022/07/28 10:27:42;;;;;;;3.42;3.13;;;33.80;88.10;;;;;;5094832;28;20235;-87
2022/07/28 10:30:12;;;;;;;3.78;3.45;;;34.00;86.30;;;;;;5095071;28;20291;-86
2022/07/28 10:32:43;;;;;;;3.65;3.35;;;34.20;83.00;;;;;;5094730;28;20269;-86
2022/07/28 10:35:13;;;;;;;8.90;3.33;;;34.10;81.70;;;;;;5095013;28;20211;-86
2022/07/28 10:37:49;;;;;;;3.45;3.17;;;33.70;81.30;;;;;;5094257;28;20297;-87
2022/07/28 10:40:22;;;;;;;3.28;2.97;;;33.40;84.00;;;;;;5094740;28;20291;-87
2022/07/28 10:42:52;;;;;;;3.33;3.03;;;33.20;86.20;;;;;;5095233;28;20247;-86
2022/07/28 10:45:21;;;;;;;4.97;2.72;;;33.30;83.30;;;;;;5094903;28;20219;-87
2022/07/28 10:47:50;;;;;;;3.47;3.17;;;33.90;82.70;;;;;;5094540;28;20319;-87
2022/07/28 10:50:22;;;;;;;3.50;3.20;;;34.20;77.10;;;;;;5094852;28;20208;-86
2022/07/28 10:52:51;;;;;;;3.20;2.90;;;34.20;78.70;;;;;;5094056;28;20223;-86
2022/07/28 10:55:40;;;;;;;3.65;3.10;;;34.10;73.30;;;;;;5094764;28;20214;-86
2022/07/28 10:58:17;;;;;;;3.28;2.88;;;34.00;77.30;;;;;;5093985;28;20216;-86
2022/07/28 11:00:53;;;;;;;2.88;2.67;;;34.30;80.20;;;;;;5094362;28;20203;-86
2022/07/28 11:03:41;;;;;;;3.30;3.00;;;34.50;76.90;;;;;;5094430;28;20223;-86
2022/07/28 11:06:26;;;;;;;3.58;3.17;;;35.00;77.60;;;;;;5094373;28;20203;-86
2022/07/28 11:08:54;;;;;;;3.92;2.88;;;35.40;75.30;;;;;;5092070;28;20227;-86
2022/07/28 11:11:48;;;;;;;3.17;2.83;;;35.60;74.70;;;;;;5094300;28;20240;-86
2022/07/28 11:14:32;;;;;;;2.95;2.67;;;35.60;74.30;;;;;;5094283;28;20210;-86
2022/07/28 11:17:18;;;;;;;3.63;2.92;;;35.30;71.10;;;;;;5094148;28;20227;-86
2022/07/28 11:19:56;;;;;;;3.55;3.25;;;34.90;69.50;;;;;;5093549;28;20217;-86
2022/07/28 11:22:45;;;;;;;10.85;3.80;;;35.10;70.00;;;;;;5093559;28;20192;-87
2022/07/28 11:25:16;;;;;;;3.40;3.10;;;35.30;71.90;;;;;;5094062;28;20202;-87
2022/07/28 11:28:05;;;;;;;5.03;3.22;;;35.20;70.10;;;;;;5094026;28;20310;-87
2022/07/28 11:30:53;;;;;;;2.83;2.63;;;35.50;69.70;;;;;;5093845;28;20195;-87
2022/07/28 11:33:23;;;;;;;3.35;3.05;;;35.30;69.60;;;;;;5093863;28;20281;-87
2022/07/28 11:35:59;;;;;;;2.60;2.40;;;35.50;70.40;;;;;;5093296;28;20200;-87
2022/07/28 11:38:29;;;;;;;3.28;2.97;;;35.60;72.00;;;;;;5093594;28;20232;-87
2022/07/28 11:40:58;;;;;;;2.67;2.47;;;35.80;70.70;;;;;;5093691;28;20200;-87
2022/07/28 11:43:38;;;;;;;3.58;3.28;;;34.90;73.10;;;;;;5093950;28;20208;-87
2022/07/28 11:46:34;;;;;;;3.05;2.75;;;35.40;66.90;;;;;;5093543;28;20215;-87
2022/07/28 11:49:23;;;;;;;3.85;3.55;;;35.70;71.70;;;;;;5093489;28;20208;-87
2022/07/28 11:52:22;;;;;;;3.97;2.33;;;;;;;;;;5093385;28;20262;-87
2022/07/28 11:54:54;;;;;;;2.38;2.22;;;35.90;67.20;;;;;;5093341;28;20199;-87
2022/07/28 11:57:24;;;;;;;3.97;2.28;;;36.10;65.20;;;;;;5093334;28;20231;-87
2022/07/28 12:00:02;;;;;;;3.40;2.40;;;35.90;60.30;;;;;;5093249;28;20211;-87
2022/07/28 12:02:32;;;;;;;4.03;3.17;;;35.90;62.70;;;;;;5092984;28;20204;-87
2022/07/28 12:05:13;;;;;;;3.03;2.38;;;35.60;63.50;;;;;;5092725;28;20208;-87
2022/07/28 12:07:44;;;;;;;2.05;1.95;;;35.70;65.40;;;;;;5092807;28;20231;-87
2022/07/28 12:10:30;;;;;;;2.67;2.47;;;36.00;63.40;;;;;;5093119;28;20203;-87
2022/07/28 12:13:26;;;;;;;2.80;2.40;;;36.40;62.60;;;;;;5092909;28;20219;-87
2022/07/28 12:15:56;;;;;;;1.95;1.85;;;36.30;64.30;;;;;;5093246;28;20274;-87
2022/07/28 12:18:25;;;;;;;2.38;2.28;;;36.50;64.10;;;;;;5092455;28;20243;-87
2022/07/28 12:20:53;;;;;;;2.42;2.22;;;36.30;60.20;;;;;;5092702;28;20203;-87
2022/07/28 12:23:30;;;;;;;3.28;2.40;;;36.00;58.50;;;;;;5093286;28;20207;-87
2022/07/28 12:26:29;;;;;;;2.75;2.45;;;36.00;61.40;;;;;;5092767;28;20207;-87
2022/07/28 12:28:58;;;;;;;2.30;2.00;;;35.50;60.80;;;;;;5092872;28;20206;-87
2022/07/28 12:31:31;;;;;;;2.65;2.45;;;35.30;59.50;;;;;;5093178;28;20199;-87
2022/07/28 12:34:00;;;;;;;2.45;2.22;;;35.30;62.10;;;;;;5092549;28;20211;-87
2022/07/28 12:36:29;;;;;;;2.67;2.47;;;35.30;60.80;;;;;;5092381;28;20219;-87
2022/07/28 12:38:59;;;;;;;2.70;2.50;;;35.30;63.10;;;;;;5092259;28;20263;-87
2022/07/28 12:41:32;;;;;;;2.92;2.72;;;34.90;58.70;;;;;;5092746;28;20207;-87
2022/07/28 12:44:02;;;;;;;4.68;2.50;;;34.80;60.20;;;;;;5092689;28;20235;-87
2022/07/28 12:46:34;;;;;;;2.60;2.40;;;34.80;62.10;;;;;;5092928;28;20239;-87
2022/07/28 12:49:03;;;;;;;2.10;2.00;;;34.70;60.20;;;;;;5092484;28;20222;-87
2022/07/28 12:51:35;;;;;;;2.33;2.20;;;34.60;60.80;;;;;;5092787;28;20203;-88
2022/07/28 12:54:06;;;;;;;2.33;2.13;;;34.40;61.50;;;;;;5093280;28;20272;-87
2022/07/28 12:56:45;;;;;;;2.53;2.33;;;34.30;61.80;;;;;;5092675;28;20327;-88
2022/07/28 12:59:14;;;;;;;3.03;2.17;;;34.40;63.60;;;;;;5092740;28;20199;-88
2022/07/28 13:01:49;;;;;;;2.22;2.08;;;34.50;62.20;;;;;;5092685;28;20207;-87
2022/07/28 13:04:37;;;;;;;5.50;2.17;;;34.40;61.60;;;;;;5092927;28;20212;-87
2022/07/28 13:07:08;;;;;;;3.10;2.90;;;34.50;62.00;;;;;;5092552;28;20223;-87
2022/07/28 13:09:40;;;;;;;2.42;2.22;;;34.30;61.70;;;;;;5092506;28;20208;-87
2022/07/28 13:12:17;;;;;;;3.47;2.08;;;34.30;60.30;;;;;;5092585;28;20220;-87
2022/07/28 13:14:50;;;;;;;2.15;2.05;;;34.10;61.00;;;;;;5092593;28;20207;-87
2022/07/28 13:17:22;;;;;;;2.47;2.28;;;33.90;61.20;;;;;;5095178;28;20227;-87